sensor_id;sensor_type;location;lat;lon;timestamp;P1;durP1;ratioP1;P2;durP2;ratioP2
55461;SDS011;41327;45.102;20.624;2023-12-04T00:00:14;9.65;;;6.13;;
55461;SDS011;41327;45.102;20.624;2023-12-04T00:02:40;13.95;;;6.40;;
55461;SDS011;41327;45.102;20.624;2023-12-04T00:05:06;12.27;;;6.35;;
55461;SDS011;41327;45.102;20.624;2023-12-04T00:07:32;10.80;;;6.15;;
55461;SDS011;41327;45.102;20.624;2023-12-04T00:09:57;12.50;;;5.65;;
55461;SDS011;41327;45.102;20.624;2023-12-04T00:12:23;10.07;;;5.90;;
55461;SDS011;41327;45.102;20.624;2023-12-04T00:14:48;10.88;;;6.50;;
55461;SDS011;41327;45.102;20.624;2023-12-04T00:17:14;13.55;;;5.90;;
55461;SDS011;41327;45.102;20.624;2023-12-04T00:19:39;13.98;;;6.00;;
55461;SDS011;41327;45.102;20.624;2023-12-04T00:22:05;10.82;;;5.25;;
55461;SDS011;41327;45.102;20.624;2023-12-04T00:24:30;8.85;;;5.90;;
55461;SDS011;41327;45.102;20.624;2023-12-04T00:26:56;8.77;;;5.25;;
55461;SDS011;41327;45.102;20.624;2023-12-04T00:29:22;9.35;;;5.18;;
55461;SDS011;41327;45.102;20.624;2023-12-04T00:31:47;14.38;;;6.68;;
55461;SDS011;41327;45.102;20.624;2023-12-04T00:34:13;12.77;;;5.80;;
55461;SDS011;41327;45.102;20.624;2023-12-04T00:36:38;11.88;;;6.20;;
55461;SDS011;41327;45.102;20.624;2023-12-04T00:39:04;13.38;;;7.57;;
55461;SDS011;41327;45.102;20.624;2023-12-04T00:41:30;7.72;;;5.22;;
55461;SDS011;41327;45.102;20.624;2023-12-04T00:43:56;12.23;;;7.03;;
55461;SDS011;41327;45.102;20.624;2023-12-04T00:46:21;10.63;;;6.03;;
55461;SDS011;41327;45.102;20.624;2023-12-04T00:48:47;14.57;;;6.50;;
55461;SDS011;41327;45.102;20.624;2023-12-04T00:51:12;9.40;;;6.13;;
55461;SDS011;41327;45.102;20.624;2023-12-04T00:53:38;15.88;;;9.00;;
55461;SDS011;41327;45.102;20.624;2023-12-04T00:56:04;13.05;;;7.97;;
55461;SDS011;41327;45.102;20.624;2023-12-04T00:58:30;14.95;;;7.97;;
55461;SDS011;41327;45.102;20.624;2023-12-04T01:00:56;10.35;;;7.07;;
55461;SDS011;41327;45.102;20.624;2023-12-04T01:03:22;14.18;;;8.35;;
55461;SDS011;41327;45.102;20.624;2023-12-04T01:05:48;13.52;;;7.05;;
55461;SDS011;41327;45.102;20.624;2023-12-04T01:08:13;14.25;;;8.35;;
55461;SDS011;41327;45.102;20.624;2023-12-04T01:10:39;14.32;;;7.40;;
55461;SDS011;41327;45.102;20.624;2023-12-04T01:13:05;19.52;;;8.55;;
55461;SDS011;41327;45.102;20.624;2023-12-04T01:15:30;20.55;;;10.00;;
55461;SDS011;41327;45.102;20.624;2023-12-04T01:17:56;20.20;;;8.93;;
55461;SDS011;41327;45.102;20.624;2023-12-04T01:20:23;19.58;;;8.45;;
55461;SDS011;41327;45.102;20.624;2023-12-04T01:22:48;14.55;;;8.32;;
55461;SDS011;41327;45.102;20.624;2023-12-04T01:25:14;13.43;;;9.50;;
55461;SDS011;41327;45.102;20.624;2023-12-04T01:27:39;18.23;;;10.95;;
55461;SDS011;41327;45.102;20.624;2023-12-04T01:30:05;16.70;;;9.13;;
55461;SDS011;41327;45.102;20.624;2023-12-04T01:32:34;12.60;;;8.85;;
55461;SDS011;41327;45.102;20.624;2023-12-04T01:35:05;16.63;;;9.30;;
55461;SDS011;41327;45.102;20.624;2023-12-04T01:37:37;12.55;;;7.07;;
55461;SDS011;41327;45.102;20.624;2023-12-04T01:40:03;18.20;;;10.40;;
55461;SDS011;41327;45.102;20.624;2023-12-04T01:42:31;17.60;;;8.55;;
55461;SDS011;41327;45.102;20.624;2023-12-04T01:44:57;15.50;;;8.77;;
55461;SDS011;41327;45.102;20.624;2023-12-04T01:47:22;17.33;;;9.27;;
55461;SDS011;41327;45.102;20.624;2023-12-04T01:49:48;21.75;;;11.15;;
55461;SDS011;41327;45.102;20.624;2023-12-04T01:52:14;15.80;;;9.13;;
55461;SDS011;41327;45.102;20.624;2023-12-04T01:54:39;13.18;;;7.88;;
55461;SDS011;41327;45.102;20.624;2023-12-04T01:57:06;18.20;;;9.77;;
55461;SDS011;41327;45.102;20.624;2023-12-04T01:59:32;21.17;;;9.80;;
55461;SDS011;41327;45.102;20.624;2023-12-04T02:01:58;24.50;;;9.63;;
55461;SDS011;41327;45.102;20.624;2023-12-04T02:04:24;14.52;;;9.27;;
55461;SDS011;41327;45.102;20.624;2023-12-04T02:06:50;18.60;;;10.05;;
55461;SDS011;41327;45.102;20.624;2023-12-04T02:09:15;20.40;;;9.50;;
55461;SDS011;41327;45.102;20.624;2023-12-04T02:11:41;19.60;;;9.70;;
55461;SDS011;41327;45.102;20.624;2023-12-04T02:14:07;17.38;;;8.82;;
55461;SDS011;41327;45.102;20.624;2023-12-04T02:16:34;16.33;;;8.68;;
55461;SDS011;41327;45.102;20.624;2023-12-04T02:19:04;15.73;;;7.80;;
55461;SDS011;41327;45.102;20.624;2023-12-04T02:21:32;9.93;;;6.53;;
55461;SDS011;41327;45.102;20.624;2023-12-04T02:23:57;18.10;;;9.77;;
55461;SDS011;41327;45.102;20.624;2023-12-04T02:26:24;15.02;;;7.82;;
55461;SDS011;41327;45.102;20.624;2023-12-04T02:28:55;19.65;;;8.52;;
55461;SDS011;41327;45.102;20.624;2023-12-04T02:31:24;13.77;;;7.30;;
55461;SDS011;41327;45.102;20.624;2023-12-04T02:33:52;17.40;;;8.52;;
55461;SDS011;41327;45.102;20.624;2023-12-04T02:36:18;17.17;;;9.98;;
55461;SDS011;41327;45.102;20.624;2023-12-04T02:38:45;13.77;;;7.60;;
55461;SDS011;41327;45.102;20.624;2023-12-04T02:41:10;15.80;;;8.32;;
55461;SDS011;41327;45.102;20.624;2023-12-04T02:43:36;26.88;;;8.90;;
55461;SDS011;41327;45.102;20.624;2023-12-04T02:46:01;12.45;;;7.03;;
55461;SDS011;41327;45.102;20.624;2023-12-04T02:48:27;9.88;;;7.35;;
55461;SDS011;41327;45.102;20.624;2023-12-04T02:50:52;13.32;;;8.57;;
55461;SDS011;41327;45.102;20.624;2023-12-04T02:53:18;13.45;;;7.47;;
55461;SDS011;41327;45.102;20.624;2023-12-04T02:55:43;16.52;;;7.55;;
55461;SDS011;41327;45.102;20.624;2023-12-04T02:58:09;19.17;;;8.23;;
55461;SDS011;41327;45.102;20.624;2023-12-04T03:00:34;13.77;;;7.85;;
55461;SDS011;41327;45.102;20.624;2023-12-04T03:03:00;17.17;;;8.38;;
55461;SDS011;41327;45.102;20.624;2023-12-04T03:05:26;14.48;;;8.23;;
55461;SDS011;41327;45.102;20.624;2023-12-04T03:07:51;16.25;;;7.97;;
55461;SDS011;41327;45.102;20.624;2023-12-04T03:10:17;13.02;;;7.13;;
55461;SDS011;41327;45.102;20.624;2023-12-04T03:12:42;16.33;;;8.25;;
55461;SDS011;41327;45.102;20.624;2023-12-04T03:15:08;12.02;;;7.97;;
55461;SDS011;41327;45.102;20.624;2023-12-04T03:17:35;13.45;;;8.02;;
55461;SDS011;41327;45.102;20.624;2023-12-04T03:20:01;13.68;;;7.40;;
55461;SDS011;41327;45.102;20.624;2023-12-04T03:22:26;12.60;;;6.25;;
55461;SDS011;41327;45.102;20.624;2023-12-04T03:24:52;18.27;;;9.10;;
55461;SDS011;41327;45.102;20.624;2023-12-04T03:27:18;12.10;;;8.30;;
55461;SDS011;41327;45.102;20.624;2023-12-04T03:29:43;14.15;;;6.75;;
55461;SDS011;41327;45.102;20.624;2023-12-04T03:32:09;12.30;;;7.30;;
55461;SDS011;41327;45.102;20.624;2023-12-04T03:34:34;17.10;;;9.13;;
55461;SDS011;41327;45.102;20.624;2023-12-04T03:37:00;15.65;;;8.82;;
55461;SDS011;41327;45.102;20.624;2023-12-04T03:39:25;12.68;;;7.45;;
55461;SDS011;41327;45.102;20.624;2023-12-04T03:41:51;16.42;;;8.55;;
55461;SDS011;41327;45.102;20.624;2023-12-04T03:44:16;21.63;;;9.57;;
55461;SDS011;41327;45.102;20.624;2023-12-04T03:46:42;25.08;;;8.68;;
55461;SDS011;41327;45.102;20.624;2023-12-04T03:49:07;17.75;;;8.82;;
55461;SDS011;41327;45.102;20.624;2023-12-04T03:51:33;14.10;;;7.25;;
55461;SDS011;41327;45.102;20.624;2023-12-04T03:53:59;24.27;;;10.10;;
55461;SDS011;41327;45.102;20.624;2023-12-04T03:56:24;14.32;;;8.95;;
55461;SDS011;41327;45.102;20.624;2023-12-04T03:58:50;22.70;;;10.10;;
55461;SDS011;41327;45.102;20.624;2023-12-04T04:01:15;15.75;;;8.15;;
55461;SDS011;41327;45.102;20.624;2023-12-04T04:03:41;12.77;;;7.68;;
55461;SDS011;41327;45.102;20.624;2023-12-04T04:06:08;18.52;;;10.15;;
55461;SDS011;41327;45.102;20.624;2023-12-04T04:08:34;16.33;;;9.00;;
55461;SDS011;41327;45.102;20.624;2023-12-04T04:10:59;19.85;;;10.30;;
55461;SDS011;41327;45.102;20.624;2023-12-04T04:13:25;20.52;;;8.80;;
55461;SDS011;41327;45.102;20.624;2023-12-04T04:15:50;17.50;;;9.85;;
55461;SDS011;41327;45.102;20.624;2023-12-04T04:18:16;27.23;;;11.00;;
55461;SDS011;41327;45.102;20.624;2023-12-04T04:20:41;14.73;;;9.40;;
55461;SDS011;41327;45.102;20.624;2023-12-04T04:23:07;17.33;;;10.15;;
55461;SDS011;41327;45.102;20.624;2023-12-04T04:25:33;15.73;;;7.47;;
55461;SDS011;41327;45.102;20.624;2023-12-04T04:27:58;15.93;;;9.10;;
55461;SDS011;41327;45.102;20.624;2023-12-04T04:30:24;21.13;;;9.70;;
55461;SDS011;41327;45.102;20.624;2023-12-04T04:32:49;25.92;;;9.60;;
55461;SDS011;41327;45.102;20.624;2023-12-04T04:35:15;22.95;;;11.38;;
55461;SDS011;41327;45.102;20.624;2023-12-04T04:37:40;34.20;;;11.50;;
55461;SDS011;41327;45.102;20.624;2023-12-04T04:40:06;15.90;;;9.43;;
55461;SDS011;41327;45.102;20.624;2023-12-04T04:42:32;25.55;;;10.70;;
55461;SDS011;41327;45.102;20.624;2023-12-04T04:44:58;21.20;;;9.20;;
55461;SDS011;41327;45.102;20.624;2023-12-04T04:47:23;19.30;;;9.60;;
55461;SDS011;41327;45.102;20.624;2023-12-04T04:49:49;21.15;;;11.10;;
55461;SDS011;41327;45.102;20.624;2023-12-04T04:52:14;21.67;;;11.52;;
55461;SDS011;41327;45.102;20.624;2023-12-04T04:54:40;25.90;;;11.02;;
55461;SDS011;41327;45.102;20.624;2023-12-04T04:57:05;19.27;;;9.52;;
55461;SDS011;41327;45.102;20.624;2023-12-04T04:59:31;16.20;;;9.63;;
55461;SDS011;41327;45.102;20.624;2023-12-04T05:01:57;13.40;;;9.18;;
55461;SDS011;41327;45.102;20.624;2023-12-04T05:04:23;25.42;;;9.75;;
55461;SDS011;41327;45.102;20.624;2023-12-04T05:06:48;15.80;;;8.98;;
55461;SDS011;41327;45.102;20.624;2023-12-04T05:09:14;20.20;;;8.20;;
55461;SDS011;41327;45.102;20.624;2023-12-04T05:11:39;20.00;;;9.68;;
55461;SDS011;41327;45.102;20.624;2023-12-04T05:14:05;21.08;;;10.68;;
55461;SDS011;41327;45.102;20.624;2023-12-04T05:16:30;21.33;;;10.63;;
55461;SDS011;41327;45.102;20.624;2023-12-04T05:18:56;26.70;;;11.98;;
55461;SDS011;41327;45.102;20.624;2023-12-04T05:21:22;20.30;;;10.00;;
55461;SDS011;41327;45.102;20.624;2023-12-04T05:23:47;15.68;;;9.98;;
55461;SDS011;41327;45.102;20.624;2023-12-04T05:26:13;47.92;;;20.60;;
55461;SDS011;41327;45.102;20.624;2023-12-04T05:28:38;78.13;;;33.20;;
55461;SDS011;41327;45.102;20.624;2023-12-04T05:31:04;117.93;;;47.33;;
55461;SDS011;41327;45.102;20.624;2023-12-04T05:33:30;43.58;;;19.83;;
55461;SDS011;41327;45.102;20.624;2023-12-04T05:35:55;58.63;;;23.75;;
55461;SDS011;41327;45.102;20.624;2023-12-04T05:38:21;81.40;;;31.20;;
55461;SDS011;41327;45.102;20.624;2023-12-04T05:40:46;112.43;;;41.00;;
55461;SDS011;41327;45.102;20.624;2023-12-04T05:43:12;74.38;;;29.95;;
55461;SDS011;41327;45.102;20.624;2023-12-04T05:45:38;109.93;;;39.30;;
55461;SDS011;41327;45.102;20.624;2023-12-04T05:48:04;34.83;;;16.63;;
55461;SDS011;41327;45.102;20.624;2023-12-04T05:50:30;24.20;;;9.93;;
55461;SDS011;41327;45.102;20.624;2023-12-04T05:52:59;37.00;;;15.00;;
55461;SDS011;41327;45.102;20.624;2023-12-04T05:55:25;36.10;;;16.65;;
55461;SDS011;41327;45.102;20.624;2023-12-04T05:57:50;29.73;;;14.90;;
55461;SDS011;41327;45.102;20.624;2023-12-04T06:00:17;31.33;;;13.63;;
55461;SDS011;41327;45.102;20.624;2023-12-04T06:02:43;37.88;;;17.20;;
55461;SDS011;41327;45.102;20.624;2023-12-04T06:05:08;39.83;;;13.95;;
55461;SDS011;41327;45.102;20.624;2023-12-04T06:07:34;28.13;;;14.95;;
55461;SDS011;41327;45.102;20.624;2023-12-04T06:10:00;30.70;;;11.80;;
55461;SDS011;41327;45.102;20.624;2023-12-04T06:12:26;27.30;;;12.68;;
55461;SDS011;41327;45.102;20.624;2023-12-04T06:14:52;24.30;;;11.85;;
55461;SDS011;41327;45.102;20.624;2023-12-04T06:17:17;18.70;;;9.82;;
55461;SDS011;41327;45.102;20.624;2023-12-04T06:19:43;25.02;;;10.40;;
55461;SDS011;41327;45.102;20.624;2023-12-04T06:22:09;25.73;;;11.48;;
55461;SDS011;41327;45.102;20.624;2023-12-04T06:24:34;26.75;;;11.32;;
55461;SDS011;41327;45.102;20.624;2023-12-04T06:27:00;30.88;;;11.27;;
55461;SDS011;41327;45.102;20.624;2023-12-04T06:29:27;24.65;;;11.38;;
55461;SDS011;41327;45.102;20.624;2023-12-04T06:31:52;16.92;;;9.68;;
55461;SDS011;41327;45.102;20.624;2023-12-04T06:34:18;23.65;;;10.55;;
55461;SDS011;41327;45.102;20.624;2023-12-04T06:36:44;19.33;;;10.95;;
55461;SDS011;41327;45.102;20.624;2023-12-04T06:39:10;22.65;;;10.73;;
55461;SDS011;41327;45.102;20.624;2023-12-04T06:41:37;15.27;;;8.30;;
55461;SDS011;41327;45.102;20.624;2023-12-04T06:44:07;15.88;;;8.15;;
55461;SDS011;41327;45.102;20.624;2023-12-04T06:46:34;16.30;;;7.55;;
55461;SDS011;41327;45.102;20.624;2023-12-04T06:49:02;15.02;;;7.10;;
55461;SDS011;41327;45.102;20.624;2023-12-04T06:51:29;26.70;;;13.10;;
55461;SDS011;41327;45.102;20.624;2023-12-04T06:53:55;26.45;;;12.50;;
55461;SDS011;41327;45.102;20.624;2023-12-04T06:56:20;21.83;;;11.18;;
55461;SDS011;41327;45.102;20.624;2023-12-04T06:58:46;23.15;;;10.60;;
55461;SDS011;41327;45.102;20.624;2023-12-04T07:01:11;26.58;;;13.63;;
55461;SDS011;41327;45.102;20.624;2023-12-04T07:03:37;22.90;;;12.00;;
55461;SDS011;41327;45.102;20.624;2023-12-04T07:06:03;29.35;;;12.52;;
55461;SDS011;41327;45.102;20.624;2023-12-04T07:08:29;22.92;;;11.20;;
55461;SDS011;41327;45.102;20.624;2023-12-04T07:10:54;35.30;;;13.60;;
55461;SDS011;41327;45.102;20.624;2023-12-04T07:13:20;25.23;;;13.07;;
55461;SDS011;41327;45.102;20.624;2023-12-04T07:15:46;21.60;;;9.25;;
55461;SDS011;41327;45.102;20.624;2023-12-04T07:18:11;17.88;;;10.98;;
55461;SDS011;41327;45.102;20.624;2023-12-04T07:20:37;25.88;;;15.73;;
55461;SDS011;41327;45.102;20.624;2023-12-04T07:23:02;51.20;;;26.92;;
55461;SDS011;41327;45.102;20.624;2023-12-04T07:25:28;46.03;;;21.60;;
55461;SDS011;41327;45.102;20.624;2023-12-04T07:27:53;39.25;;;15.75;;
55461;SDS011;41327;45.102;20.624;2023-12-04T07:30:19;24.27;;;11.45;;
55461;SDS011;41327;45.102;20.624;2023-12-04T07:32:45;28.17;;;13.60;;
55461;SDS011;41327;45.102;20.624;2023-12-04T07:35:11;21.13;;;12.57;;
55461;SDS011;41327;45.102;20.624;2023-12-04T07:37:37;22.00;;;12.40;;
55461;SDS011;41327;45.102;20.624;2023-12-04T07:40:02;26.33;;;11.30;;
55461;SDS011;41327;45.102;20.624;2023-12-04T07:42:31;24.88;;;13.73;;
55461;SDS011;41327;45.102;20.624;2023-12-04T07:44:56;38.92;;;17.00;;
55461;SDS011;41327;45.102;20.624;2023-12-04T07:47:22;32.75;;;13.93;;
55461;SDS011;41327;45.102;20.624;2023-12-04T07:49:48;28.60;;;15.40;;
55461;SDS011;41327;45.102;20.624;2023-12-04T07:52:14;52.58;;;14.90;;
55461;SDS011;41327;45.102;20.624;2023-12-04T07:54:39;41.22;;;14.93;;
55461;SDS011;41327;45.102;20.624;2023-12-04T07:57:05;31.25;;;16.77;;
55461;SDS011;41327;45.102;20.624;2023-12-04T07:59:31;47.83;;;22.77;;
55461;SDS011;41327;45.102;20.624;2023-12-04T08:01:56;39.03;;;20.77;;
55461;SDS011;41327;45.102;20.624;2023-12-04T08:04:22;34.42;;;19.55;;
55461;SDS011;41327;45.102;20.624;2023-12-04T08:06:47;35.97;;;16.58;;
55461;SDS011;41327;45.102;20.624;2023-12-04T08:09:13;29.15;;;15.85;;
55461;SDS011;41327;45.102;20.624;2023-12-04T08:11:38;33.50;;;16.48;;
55461;SDS011;41327;45.102;20.624;2023-12-04T08:14:05;23.35;;;13.20;;
55461;SDS011;41327;45.102;20.624;2023-12-04T08:16:31;37.33;;;15.05;;
55461;SDS011;41327;45.102;20.624;2023-12-04T08:18:57;28.30;;;16.02;;
55461;SDS011;41327;45.102;20.624;2023-12-04T08:21:22;50.42;;;24.02;;
55461;SDS011;41327;45.102;20.624;2023-12-04T08:23:48;36.88;;;17.13;;
55461;SDS011;41327;45.102;20.624;2023-12-04T08:26:20;34.53;;;16.55;;
55461;SDS011;41327;45.102;20.624;2023-12-04T08:28:46;34.10;;;13.10;;
55461;SDS011;41327;45.102;20.624;2023-12-04T08:31:12;23.70;;;15.20;;
55461;SDS011;41327;45.102;20.624;2023-12-04T08:33:37;40.25;;;19.25;;
55461;SDS011;41327;45.102;20.624;2023-12-04T08:36:03;26.42;;;15.05;;
55461;SDS011;41327;45.102;20.624;2023-12-04T08:38:29;24.02;;;10.90;;
55461;SDS011;41327;45.102;20.624;2023-12-04T08:40:55;16.10;;;8.07;;
55461;SDS011;41327;45.102;20.624;2023-12-04T08:43:20;18.23;;;8.90;;
55461;SDS011;41327;45.102;20.624;2023-12-04T08:45:46;16.38;;;8.38;;
55461;SDS011;41327;45.102;20.624;2023-12-04T08:48:11;23.88;;;10.07;;
55461;SDS011;41327;45.102;20.624;2023-12-04T08:50:37;14.65;;;9.57;;
55461;SDS011;41327;45.102;20.624;2023-12-04T08:53:03;24.02;;;12.18;;
55461;SDS011;41327;45.102;20.624;2023-12-04T08:55:29;14.32;;;8.85;;
55461;SDS011;41327;45.102;20.624;2023-12-04T08:57:58;11.38;;;7.78;;
55461;SDS011;41327;45.102;20.624;2023-12-04T09:00:24;13.43;;;7.50;;
55461;SDS011;41327;45.102;20.624;2023-12-04T09:02:49;15.32;;;8.00;;
55461;SDS011;41327;45.102;20.624;2023-12-04T09:05:15;33.33;;;15.75;;
55461;SDS011;41327;45.102;20.624;2023-12-04T09:07:40;52.08;;;22.95;;
55461;SDS011;41327;45.102;20.624;2023-12-04T09:10:09;29.95;;;15.68;;
55461;SDS011;41327;45.102;20.624;2023-12-04T09:12:34;23.20;;;7.97;;
55461;SDS011;41327;45.102;20.624;2023-12-04T09:15:02;23.38;;;9.75;;
55461;SDS011;41327;45.102;20.624;2023-12-04T09:17:28;24.45;;;9.15;;
55461;SDS011;41327;45.102;20.624;2023-12-04T09:19:53;12.55;;;7.13;;
55461;SDS011;41327;45.102;20.624;2023-12-04T09:22:19;14.82;;;7.32;;
55461;SDS011;41327;45.102;20.624;2023-12-04T09:24:45;8.45;;;6.43;;
55461;SDS011;41327;45.102;20.624;2023-12-04T09:27:10;12.73;;;8.23;;
55461;SDS011;41327;45.102;20.624;2023-12-04T09:29:36;13.30;;;7.20;;
55461;SDS011;41327;45.102;20.624;2023-12-04T09:32:01;11.57;;;6.85;;
55461;SDS011;41327;45.102;20.624;2023-12-04T09:34:27;12.73;;;7.90;;
55461;SDS011;41327;45.102;20.624;2023-12-04T09:36:53;12.93;;;7.45;;
55461;SDS011;41327;45.102;20.624;2023-12-04T09:39:18;14.73;;;7.53;;
55461;SDS011;41327;45.102;20.624;2023-12-04T09:41:44;10.30;;;6.95;;
55461;SDS011;41327;45.102;20.624;2023-12-04T09:44:12;19.17;;;10.70;;
55461;SDS011;41327;45.102;20.624;2023-12-04T09:46:38;13.07;;;7.78;;
55461;SDS011;41327;45.102;20.624;2023-12-04T09:49:04;15.65;;;8.35;;
55461;SDS011;41327;45.102;20.624;2023-12-04T09:51:30;17.25;;;9.40;;
55461;SDS011;41327;45.102;20.624;2023-12-04T09:53:56;11.40;;;7.20;;
55461;SDS011;41327;45.102;20.624;2023-12-04T09:56:22;15.65;;;8.82;;
55461;SDS011;41327;45.102;20.624;2023-12-04T09:58:50;9.50;;;5.40;;
55461;SDS011;41327;45.102;20.624;2023-12-04T10:01:18;16.50;;;8.45;;
55461;SDS011;41327;45.102;20.624;2023-12-04T10:03:44;9.75;;;7.25;;
55461;SDS011;41327;45.102;20.624;2023-12-04T10:06:10;21.90;;;8.32;;
55461;SDS011;41327;45.102;20.624;2023-12-04T10:08:37;15.80;;;8.57;;
55461;SDS011;41327;45.102;20.624;2023-12-04T10:11:02;10.27;;;5.82;;
55461;SDS011;41327;45.102;20.624;2023-12-04T10:13:28;12.23;;;7.13;;
55461;SDS011;41327;45.102;20.624;2023-12-04T10:15:54;18.42;;;7.10;;
55461;SDS011;41327;45.102;20.624;2023-12-04T10:18:26;9.70;;;6.60;;
55461;SDS011;41327;45.102;20.624;2023-12-04T10:20:57;9.77;;;5.70;;
55461;SDS011;41327;45.102;20.624;2023-12-04T10:23:43;10.55;;;5.65;;
55461;SDS011;41327;45.102;20.624;2023-12-04T10:26:09;5.32;;;4.82;;
55461;SDS011;41327;45.102;20.624;2023-12-04T10:28:36;7.80;;;5.43;;
55461;SDS011;41327;45.102;20.624;2023-12-04T10:31:02;13.57;;;6.22;;
55461;SDS011;41327;45.102;20.624;2023-12-04T10:33:30;14.38;;;6.57;;
55461;SDS011;41327;45.102;20.624;2023-12-04T10:35:56;33.00;;;16.67;;
55461;SDS011;41327;45.102;20.624;2023-12-04T10:38:22;29.52;;;14.98;;
55461;SDS011;41327;45.102;20.624;2023-12-04T10:40:48;41.15;;;18.15;;
55461;SDS011;41327;45.102;20.624;2023-12-04T10:43:17;26.73;;;11.18;;
55461;SDS011;41327;45.102;20.624;2023-12-04T10:45:45;25.90;;;12.15;;
55461;SDS011;41327;45.102;20.624;2023-12-04T10:48:12;20.13;;;7.90;;
55461;SDS011;41327;45.102;20.624;2023-12-04T10:50:39;19.10;;;9.82;;
55461;SDS011;41327;45.102;20.624;2023-12-04T10:53:06;16.15;;;8.25;;
55461;SDS011;41327;45.102;20.624;2023-12-04T10:55:33;26.65;;;7.93;;
55461;SDS011;41327;45.102;20.624;2023-12-04T10:58:00;13.27;;;8.05;;
55461;SDS011;41327;45.102;20.624;2023-12-04T11:00:29;13.15;;;6.10;;
55461;SDS011;41327;45.102;20.624;2023-12-04T11:02:55;12.55;;;6.10;;
55461;SDS011;41327;45.102;20.624;2023-12-04T11:05:22;33.60;;;9.50;;
55461;SDS011;41327;45.102;20.624;2023-12-04T11:07:53;8.82;;;6.07;;
55461;SDS011;41327;45.102;20.624;2023-12-04T11:10:23;10.50;;;6.55;;
55461;SDS011;41327;45.102;20.624;2023-12-04T11:12:51;12.02;;;4.70;;
55461;SDS011;41327;45.102;20.624;2023-12-04T11:15:20;9.82;;;6.07;;
55461;SDS011;41327;45.102;20.624;2023-12-04T11:17:48;15.38;;;8.70;;
55461;SDS011;41327;45.102;20.624;2023-12-04T11:20:16;8.07;;;4.72;;
55461;SDS011;41327;45.102;20.624;2023-12-04T11:22:44;8.32;;;5.45;;
55461;SDS011;41327;45.102;20.624;2023-12-04T11:25:11;6.78;;;3.90;;
55461;SDS011;41327;45.102;20.624;2023-12-04T11:27:38;16.23;;;5.20;;
55461;SDS011;41327;45.102;20.624;2023-12-04T11:30:03;14.43;;;5.68;;
55461;SDS011;41327;45.102;20.624;2023-12-04T11:32:31;11.88;;;4.95;;
55461;SDS011;41327;45.102;20.624;2023-12-04T11:34:59;8.65;;;5.13;;
55461;SDS011;41327;45.102;20.624;2023-12-04T11:37:25;5.35;;;4.80;;
55461;SDS011;41327;45.102;20.624;2023-12-04T11:39:51;10.65;;;5.10;;
55461;SDS011;41327;45.102;20.624;2023-12-04T11:42:23;8.00;;;5.25;;
55461;SDS011;41327;45.102;20.624;2023-12-04T11:44:49;11.45;;;4.93;;
55461;SDS011;41327;45.102;20.624;2023-12-04T11:47:21;9.07;;;4.82;;
55461;SDS011;41327;45.102;20.624;2023-12-04T11:49:46;9.88;;;5.72;;
55461;SDS011;41327;45.102;20.624;2023-12-04T11:52:12;8.75;;;4.75;;
55461;SDS011;41327;45.102;20.624;2023-12-04T11:57:24;11.00;;;6.15;;
55461;SDS011;41327;45.102;20.624;2023-12-04T11:59:51;5.05;;;4.53;;
55461;SDS011;41327;45.102;20.624;2023-12-04T12:02:17;9.45;;;5.68;;
55461;SDS011;41327;45.102;20.624;2023-12-04T12:04:43;9.20;;;5.45;;
55461;SDS011;41327;45.102;20.624;2023-12-04T12:07:10;8.70;;;5.45;;
55461;SDS011;41327;45.102;20.624;2023-12-04T12:09:36;6.78;;;4.20;;
55461;SDS011;41327;45.102;20.624;2023-12-04T12:12:02;11.55;;;6.07;;
55461;SDS011;41327;45.102;20.624;2023-12-04T12:14:28;10.65;;;5.47;;
55461;SDS011;41327;45.102;20.624;2023-12-04T12:16:55;14.18;;;8.00;;
55461;SDS011;41327;45.102;20.624;2023-12-04T12:19:21;9.80;;;5.93;;
55461;SDS011;41327;45.102;20.624;2023-12-04T12:21:49;5.03;;;3.78;;
55461;SDS011;41327;45.102;20.624;2023-12-04T12:24:17;7.25;;;4.18;;
55461;SDS011;41327;45.102;20.624;2023-12-04T12:26:43;11.43;;;6.00;;
55461;SDS011;41327;45.102;20.624;2023-12-04T12:29:10;10.07;;;4.10;;
55461;SDS011;41327;45.102;20.624;2023-12-04T12:31:36;11.40;;;4.35;;
55461;SDS011;41327;45.102;20.624;2023-12-04T12:34:01;6.82;;;3.70;;
55461;SDS011;41327;45.102;20.624;2023-12-04T12:36:28;11.60;;;5.57;;
55461;SDS011;41327;45.102;20.624;2023-12-04T12:38:54;10.82;;;5.93;;
55461;SDS011;41327;45.102;20.624;2023-12-04T12:41:19;10.75;;;6.60;;
55461;SDS011;41327;45.102;20.624;2023-12-04T12:43:45;4.70;;;4.13;;
55461;SDS011;41327;45.102;20.624;2023-12-04T12:46:12;5.43;;;3.70;;
55461;SDS011;41327;45.102;20.624;2023-12-04T12:48:38;13.73;;;5.45;;
55461;SDS011;41327;45.102;20.624;2023-12-04T12:51:04;7.13;;;5.07;;
55461;SDS011;41327;45.102;20.624;2023-12-04T12:53:34;8.73;;;4.68;;
55461;SDS011;41327;45.102;20.624;2023-12-04T12:56:00;5.00;;;3.20;;
55461;SDS011;41327;45.102;20.624;2023-12-04T12:58:29;6.10;;;4.63;;
55461;SDS011;41327;45.102;20.624;2023-12-04T13:00:55;7.20;;;4.10;;
55461;SDS011;41327;45.102;20.624;2023-12-04T13:03:21;10.93;;;3.20;;
55461;SDS011;41327;45.102;20.624;2023-12-04T13:05:46;6.63;;;3.90;;
55461;SDS011;41327;45.102;20.624;2023-12-04T13:08:12;8.52;;;4.80;;
55461;SDS011;41327;45.102;20.624;2023-12-04T13:10:38;5.32;;;3.65;;
55461;SDS011;41327;45.102;20.624;2023-12-04T13:13:14;7.03;;;4.00;;
55461;SDS011;41327;45.102;20.624;2023-12-04T13:15:43;8.82;;;4.35;;
55461;SDS011;41327;45.102;20.624;2023-12-04T13:18:09;9.13;;;4.90;;
55461;SDS011;41327;45.102;20.624;2023-12-04T13:20:35;9.52;;;5.43;;
55461;SDS011;41327;45.102;20.624;2023-12-04T13:23:00;5.53;;;4.63;;
55461;SDS011;41327;45.102;20.624;2023-12-04T13:25:26;7.80;;;4.97;;
55461;SDS011;41327;45.102;20.624;2023-12-04T13:27:52;8.30;;;4.65;;
55461;SDS011;41327;45.102;20.624;2023-12-04T13:30:18;6.88;;;3.85;;
55461;SDS011;41327;45.102;20.624;2023-12-04T13:32:45;7.78;;;5.28;;
55461;SDS011;41327;45.102;20.624;2023-12-04T13:35:10;4.72;;;3.97;;
55461;SDS011;41327;45.102;20.624;2023-12-04T13:37:36;18.00;;;5.38;;
55461;SDS011;41327;45.102;20.624;2023-12-04T13:40:03;7.85;;;5.05;;
55461;SDS011;41327;45.102;20.624;2023-12-04T13:42:34;13.05;;;6.15;;
55461;SDS011;41327;45.102;20.624;2023-12-04T13:45:18;7.32;;;4.07;;
55461;SDS011;41327;45.102;20.624;2023-12-04T13:47:47;6.70;;;5.28;;
55461;SDS011;41327;45.102;20.624;2023-12-04T13:50:13;15.48;;;4.50;;
55461;SDS011;41327;45.102;20.624;2023-12-04T13:52:38;6.00;;;4.65;;
55461;SDS011;41327;45.102;20.624;2023-12-04T13:55:04;7.70;;;6.00;;
55461;SDS011;41327;45.102;20.624;2023-12-04T13:57:40;8.90;;;4.97;;
55461;SDS011;41327;45.102;20.624;2023-12-04T14:00:30;11.90;;;5.15;;
55461;SDS011;41327;45.102;20.624;2023-12-04T14:02:55;14.05;;;5.07;;
55461;SDS011;41327;45.102;20.624;2023-12-04T14:05:32;11.25;;;5.55;;
55461;SDS011;41327;45.102;20.624;2023-12-04T14:07:58;9.20;;;5.05;;
55461;SDS011;41327;45.102;20.624;2023-12-04T14:10:24;17.08;;;4.65;;
55461;SDS011;41327;45.102;20.624;2023-12-04T14:12:54;6.60;;;4.10;;
55461;SDS011;41327;45.102;20.624;2023-12-04T14:15:19;5.65;;;4.22;;
55461;SDS011;41327;45.102;20.624;2023-12-04T14:17:45;9.77;;;4.20;;